Okayama, Japan

9:29 PM JST on October 01, 2016 (GMT +0900)
国道2号線 | | Change Station

Elev 9 ft 34.63 °N, 133.93 °E | Updated 13 minutes ago

Mostly Cloudy
Mostly Cloudy
73.6 °F
Feels Like 73 °F
N
1.2
Wind Variable Wind from SW
Gusts 1.9 mph

Today
High -- | Low -- °F
--% Chance of Precip.
Yesterday
High -- | Low -- °F
Precip. -- in
Pressure 30.06 in
Visibility 6.2 miles
Clouds Few 800 ft
Scattered Clouds 4000 ft
Mostly Cloudy 7000 ft
Heat Index 73 °F
Dew Point 69 °F
Humidity 86%
Rainfall 0.13 in
Snow Depth Not available.
5:58 AM 5:48 PM
New Moon, 0% visible
METAR RJOB 011200Z VRB01KT 9999 FEW008 SCT040 BKN070 21/20 Q1018
Pressure 30.06 in
Visibility 6.2 miles
Clouds Few 800 ft
Scattered Clouds 4000 ft
Mostly Cloudy 7000 ft
Heat Index 73 °F
Dew Point 69 °F
Humidity 86%
Rainfall 0.13 in
Snow Depth Not available.
5:58 AM 5:48 PM
New Moon, 0% visible
METAR RJOB 011200Z VRB01KT 9999 FEW008 SCT040 BKN070 21/20 Q1018

10-Day Weather Forecast

No radar image for this location.
×

Almanac

Astronomy

Oct. 01, 2016 Rise Set
Actual Time
Civil Twilight
Nautical Twilight
Astronomical Twilight
Moon
Length of Visible Light
Length of Day
Tomorrow will be .
, % of the Moon is Illuminated

Today's Extremes

Country Highs Country Lows

Community

WunderPhotos

Upload Photos

1,942,920 photos uploaded!

WunderBlog® & News

Nearby

Air Quality

  Air Quality AQ Index Pollutant
Not available.

Snow Depth

Station Depth Elevation

Earthquake Activity

City Distance Mag. Time & Date
Minimum magnitude displayed is 2.5.

Coastal Water Temperatures

Place Temperature

Stations

Nearby Weather Stations

Station Location Temp. Windchill Dew Point Humidity Wind Precip. Elev Updated Type